createdAt,value
2022-12-22T00:01:34.143Z,95589.97
2022-12-22T00:04:19.612Z,95585.94
2022-12-22T00:07:04.904Z,95590.41
2022-12-22T00:09:49.996Z,95580.47
2022-12-22T00:12:37.219Z,95581.84
2022-12-22T00:15:24.014Z,95577.16
2022-12-22T00:18:09.652Z,95571.47
2022-12-22T00:20:55.064Z,95574.81
2022-12-22T00:23:40.355Z,95567.50
2022-12-22T00:26:27.439Z,95570.16
2022-12-22T00:29:12.884Z,95563.53
2022-12-22T00:31:59.712Z,95562.09
2022-12-22T00:34:46.564Z,95555.94
2022-12-22T00:37:32.921Z,95560.72
2022-12-22T00:40:19.905Z,95573.63
2022-12-22T00:43:05.374Z,95558.09
2022-12-22T00:45:50.758Z,95564.84
2022-12-22T00:48:43.677Z,95561.44
2022-12-22T00:51:30.711Z,95557.38
2022-12-22T00:54:15.807Z,95568.19
2022-12-22T00:57:01.665Z,95566.66
2022-12-22T00:59:47.754Z,95552.25
2022-12-22T01:02:33.574Z,95550.34
2022-12-22T01:05:18.734Z,95558.84
2022-12-22T01:08:03.957Z,95546.66
2022-12-22T01:10:49.237Z,95546.38
2022-12-22T01:13:34.890Z,95542.56
2022-12-22T01:16:20.593Z,95531.09
2022-12-22T01:19:05.986Z,95534.75
2022-12-22T01:21:51.422Z,95519.25
2022-12-22T01:24:37.272Z,95529.53
2022-12-22T01:27:23.689Z,95520.31
2022-12-22T01:30:09.126Z,95518.84
2022-12-22T01:32:54.484Z,95510.25
2022-12-22T01:35:42.767Z,95506.94
2022-12-22T01:38:28.312Z,95495.38
2022-12-22T01:41:15.464Z,95491.72
2022-12-22T01:44:00.787Z,95478.31
2022-12-22T01:46:47.789Z,95470.50
2022-12-22T01:49:35.695Z,95470.75
2022-12-22T01:52:21.452Z,95460.72
2022-12-22T01:55:08.315Z,95447.72
2022-12-22T01:57:53.684Z,95438.88
2022-12-22T02:00:39.192Z,95429.47
2022-12-22T02:03:36.748Z,95430.66
2022-12-22T02:06:33.961Z,95416.91
2022-12-22T02:09:54.592Z,95417.63
2022-12-22T02:12:46.972Z,95396.84
2022-12-22T02:15:49.576Z,95396.06
2022-12-22T02:18:44.637Z,95377.41
2022-12-22T02:21:34.454Z,95365.97
2022-12-22T02:24:29.362Z,95349.34
2022-12-22T02:27:17.874Z,95346.28
2022-12-22T02:30:25.497Z,95338.50
2022-12-22T02:33:10.982Z,95318.84
2022-12-22T02:36:20.621Z,95303.38
2022-12-22T02:39:17.697Z,95289.56
2022-12-22T02:42:21.252Z,95279.91
2022-12-22T02:45:23.183Z,95273.69
2022-12-22T02:48:50.272Z,95259.16
2022-12-22T02:51:40.550Z,95250.31
2022-12-22T02:54:26.754Z,95244.00
2022-12-22T02:57:12.760Z,95238.41
2022-12-22T02:59:57.961Z,95237.63
2022-12-22T03:02:43.683Z,95225.41
2022-12-22T03:05:29.060Z,95219.13
2022-12-22T03:08:14.442Z,95208.81
2022-12-22T03:10:59.635Z,95197.69
2022-12-22T03:13:45.046Z,95189.91
2022-12-22T03:16:30.726Z,95195.84
2022-12-22T03:19:16.061Z,95183.22
2022-12-22T03:22:01.226Z,95166.19
2022-12-22T03:24:46.697Z,95169.56
2022-12-22T03:27:13.609Z,95157.28
2022-12-22T03:29:40.285Z,95148.78
2022-12-22T03:32:07.158Z,95140.59
2022-12-22T03:34:33.949Z,95126.94
2022-12-22T03:37:00.718Z,95126.56
2022-12-22T03:39:27.378Z,95120.59
2022-12-22T03:42:12.807Z,95113.59
2022-12-22T03:44:57.846Z,95094.66
2022-12-22T03:47:24.505Z,95103.94
2022-12-22T03:49:51.199Z,95108.03
2022-12-22T03:52:17.917Z,95113.66
2022-12-22T03:54:44.683Z,95097.00
2022-12-22T03:57:11.402Z,95079.19
2022-12-22T03:59:38.164Z,95085.91
2022-12-22T04:02:06.889Z,95112.94
2022-12-22T04:04:34.112Z,95077.75
2022-12-22T04:07:00.883Z,95070.38
2022-12-22T04:09:27.835Z,95063.31
2022-12-22T04:12:12.977Z,95067.03
2022-12-22T04:14:39.813Z,95054.44
2022-12-22T04:17:07.434Z,95063.31
2022-12-22T04:19:34.248Z,95064.47
2022-12-22T04:22:01.395Z,95057.81
2022-12-22T04:24:28.237Z,95059.28
2022-12-22T04:26:54.993Z,95061.53
2022-12-22T04:29:21.784Z,95066.69
2022-12-22T04:31:48.611Z,95058.53
2022-12-22T04:34:15.709Z,95056.31
2022-12-22T04:36:42.535Z,95099.00
2022-12-22T04:39:09.296Z,95073.34
2022-12-22T04:41:36.064Z,95068.56
2022-12-22T04:44:02.837Z,95044.53
2022-12-22T04:46:29.617Z,95040.06
2022-12-22T04:49:00.246Z,95045.66
2022-12-22T04:51:28.514Z,95048.28
2022-12-22T04:53:55.409Z,95037.94
2022-12-22T04:56:22.203Z,95030.88
2022-12-22T04:58:48.955Z,95038.69
2022-12-22T05:01:17.787Z,95054.25
2022-12-22T05:03:44.701Z,95038.72
2022-12-22T05:06:14.024Z,95042.81
2022-12-22T05:08:41.008Z,95035.34
2022-12-22T05:11:08.170Z,95026.50
2022-12-22T05:13:35.080Z,95030.59
2022-12-22T05:16:10.391Z,95015.00
2022-12-22T05:18:38.451Z,95022.78
2022-12-22T05:21:16.460Z,95013.88
2022-12-22T05:23:43.943Z,95012.75
2022-12-22T05:26:11.752Z,95007.53
2022-12-22T05:28:38.508Z,95009.06
2022-12-22T05:31:07.300Z,94995.69
2022-12-22T05:33:34.495Z,94989.75
2022-12-22T05:36:01.742Z,94982.31
2022-12-22T05:38:28.966Z,94981.19
2022-12-22T05:41:01.515Z,94987.50
2022-12-22T05:43:30.500Z,94979.34
2022-12-22T05:45:58.766Z,94961.53
2022-12-22T05:48:30.801Z,94963.00
2022-12-22T05:51:00.639Z,94955.22
2022-12-22T05:53:27.496Z,94961.53
2022-12-22T05:55:54.306Z,94964.84
2022-12-22T05:58:21.160Z,94964.88
2022-12-22T06:00:47.870Z,94967.84
2022-12-22T06:03:14.855Z,94955.59
2022-12-22T06:05:41.625Z,94948.94
2022-12-22T06:08:08.352Z,94949.69
2022-12-22T06:10:35.235Z,94946.72
2022-12-22T06:13:02.210Z,94948.22
2022-12-22T06:15:29.003Z,94944.88
2022-12-22T06:17:55.697Z,94936.00
2022-12-22T06:20:22.590Z,94927.47
2022-12-22T06:22:49.266Z,94937.91
2022-12-22T06:25:18.664Z,94931.63
2022-12-22T06:27:47.280Z,94932.41
2022-12-22T06:30:16.015Z,94949.47
2022-12-22T06:32:43.032Z,94949.50
2022-12-22T06:35:10.624Z,94952.50
2022-12-22T06:37:37.546Z,94950.66
2022-12-22T06:40:05.048Z,94958.06
2022-12-22T06:42:50.562Z,94971.81
2022-12-22T06:45:17.324Z,95007.84
2022-12-22T06:47:44.164Z,94985.59
2022-12-22T06:50:11.264Z,95000.44
2022-12-22T06:52:38.165Z,95022.31
2022-12-22T06:55:05.320Z,95031.63
2022-12-22T06:57:32.121Z,95033.13
2022-12-22T06:59:58.837Z,95034.25
2022-12-22T07:02:26.003Z,95044.25
2022-12-22T07:04:52.851Z,95049.47
2022-12-22T07:07:19.526Z,95065.41
2022-12-22T07:09:46.457Z,95062.84
2022-12-22T07:12:13.305Z,95071.00
2022-12-22T07:14:40.684Z,95071.38
2022-12-22T07:17:09.195Z,95085.16
2022-12-22T07:19:35.910Z,95101.88
2022-12-22T07:22:02.671Z,95117.50
2022-12-22T07:24:29.551Z,95121.22
2022-12-22T07:26:56.351Z,95142.03
2022-12-22T07:29:23.427Z,95153.47
2022-12-22T07:31:50.224Z,95158.69
2022-12-22T07:34:17.003Z,95157.59
2022-12-22T07:36:43.745Z,95173.91
2022-12-22T07:39:12.019Z,95180.97
2022-12-22T07:41:57.483Z,95190.25
2022-12-22T07:44:24.607Z,95189.16
2022-12-22T07:46:51.437Z,95184.63
2022-12-22T07:49:36.644Z,95182.03
2022-12-22T07:52:03.564Z,95182.03
2022-12-22T07:54:30.395Z,95181.63
2022-12-22T07:56:57.340Z,95182.38
2022-12-22T07:59:24.187Z,95171.25
2022-12-22T08:01:51.175Z,95168.63
2022-12-22T08:04:18.551Z,95164.09
2022-12-22T08:06:45.365Z,95154.81
2022-12-22T08:09:17.819Z,95161.56
2022-12-22T08:11:44.598Z,95157.81
2022-12-22T08:14:11.292Z,95155.63
2022-12-22T08:16:38.040Z,95158.91
2022-12-22T08:19:04.795Z,95164.88
2022-12-22T08:21:31.610Z,95171.16
2022-12-22T08:23:58.298Z,95187.13
2022-12-22T08:26:31.218Z,95169.31
2022-12-22T08:29:09.061Z,95183.41
2022-12-22T08:31:35.897Z,95183.00
2022-12-22T08:34:06.068Z,95178.94
2022-12-22T08:36:36.885Z,95190.81
2022-12-22T08:39:04.697Z,95175.59
2022-12-22T08:41:50.446Z,95175.59
2022-12-22T08:44:39.139Z,95178.19
2022-12-22T08:47:08.882Z,95174.47
2022-12-22T08:49:38.264Z,95181.53
2022-12-22T08:52:05.057Z,95188.56
2022-12-22T08:54:33.052Z,95177.72
2022-12-22T08:56:59.868Z,95168.09
2022-12-22T08:59:26.627Z,95171.44
2022-12-22T09:01:53.607Z,95174.78
2022-12-22T09:04:21.862Z,95178.88
2022-12-22T09:06:48.850Z,95179.59
2022-12-22T09:09:16.717Z,95207.81
2022-12-22T09:11:44.427Z,95210.34
2022-12-22T09:14:11.846Z,95215.22
2022-12-22T09:16:39.570Z,95223.78
2022-12-22T09:19:07.194Z,95234.91
2022-12-22T09:21:34.727Z,95247.88
2022-12-22T09:24:01.393Z,95244.13
2022-12-22T09:26:29.243Z,95251.84
2022-12-22T09:28:56.333Z,95251.81
2022-12-22T09:31:25.050Z,95247.78
2022-12-22T09:33:52.315Z,95251.16
2022-12-22T09:36:24.937Z,95254.84
2022-12-22T09:38:52.107Z,95273.75
2022-12-22T09:41:31.851Z,95271.13
2022-12-22T09:44:04.395Z,95288.97
2022-12-22T09:46:35.252Z,95282.72
2022-12-22T09:49:02.588Z,95290.50
2022-12-22T09:51:30.350Z,95306.84
2022-12-22T09:54:01.244Z,95308.69
2022-12-22T09:56:29.404Z,95327.66
2022-12-22T09:58:57.145Z,95328.03
2022-12-22T10:01:42.702Z,95343.91
2022-12-22T10:04:24.385Z,95353.13
2022-12-22T10:07:26.269Z,95358.75
2022-12-22T10:09:53.222Z,95362.09
2022-12-22T10:12:25.534Z,95372.84
2022-12-22T10:14:54.309Z,95371.72
2022-12-22T10:17:32.451Z,95371.38
2022-12-22T10:20:08.728Z,95384.34
2022-12-22T10:22:45.877Z,95385.81
2022-12-22T10:25:27.877Z,95389.22
2022-12-22T10:28:02.305Z,95396.25
2022-12-22T10:30:32.414Z,95393.25
2022-12-22T10:33:11.011Z,95396.94
2022-12-22T10:35:54.797Z,95393.91
2022-12-22T10:38:37.345Z,95392.03
2022-12-22T10:41:17.980Z,95406.88
2022-12-22T10:43:52.008Z,95418.09
2022-12-22T10:46:28.983Z,95389.94
2022-12-22T10:49:19.811Z,95398.75
2022-12-22T10:51:50.233Z,95391.34
2022-12-22T10:54:27.169Z,95396.56
2022-12-22T10:57:26.413Z,95400.72
2022-12-22T10:59:57.609Z,95411.09
2022-12-22T11:02:36.146Z,95414.13
2022-12-22T11:05:11.005Z,95434.19
2022-12-22T11:07:42.538Z,95446.44
2022-12-22T11:10:15.374Z,95444.91
2022-12-22T11:12:57.424Z,95453.41
2022-12-22T11:15:33.368Z,95464.53
2022-12-22T11:18:29.174Z,95461.59
2022-12-22T11:21:18.737Z,95467.44
2022-12-22T11:23:50.300Z,95493.88
2022-12-22T11:26:47.830Z,95504.94
2022-12-22T11:29:40.823Z,95516.50
2022-12-22T11:32:30.743Z,95528.09
2022-12-22T11:35:26.584Z,95535.50
2022-12-22T11:37:59.256Z,95547.78
2022-12-22T11:40:29.190Z,95554.09
2022-12-22T11:43:17.339Z,95564.84
2022-12-22T11:45:46.802Z,95568.94
2022-12-22T11:48:36.379Z,95566.47
2022-12-22T11:51:26.972Z,95582.41
2022-12-22T11:53:54.290Z,95586.47
2022-12-22T11:56:38.519Z,95601.34
2022-12-22T11:59:30.255Z,95597.63
2022-12-22T12:02:04.547Z,95612.50
2022-12-22T12:04:38.144Z,95608.13
2022-12-22T12:07:38.694Z,95632.53
2022-12-22T12:10:24.610Z,95631.03
2022-12-22T12:13:16.786Z,95630.59
2022-12-22T12:15:51.359Z,95639.16
2022-12-22T12:18:37.108Z,95644.59
2022-12-22T12:21:18.278Z,95657.13
2022-12-22T12:24:03.930Z,95673.34
2022-12-22T12:26:39.930Z,95678.66
2022-12-22T12:29:28.280Z,95697.00
2022-12-22T12:32:18.799Z,95693.91
2022-12-22T12:34:49.537Z,95703.53
2022-12-22T12:37:38.045Z,95710.47
2022-12-22T12:40:16.707Z,95717.22
2022-12-22T12:42:45.407Z,95737.25
2022-12-22T12:45:42.528Z,95735.81
2022-12-22T12:48:21.472Z,95751.06
2022-12-22T12:50:49.593Z,95753.44
2022-12-22T12:53:18.088Z,95754.41
2022-12-22T12:55:51.655Z,95758.56
2022-12-22T12:58:39.434Z,95765.97
2022-12-22T13:01:06.201Z,95772.44
2022-12-22T13:06:59.736Z,95765.00
2022-12-22T13:12:38.282Z,95780.63
2022-12-22T13:15:35.374Z,95783.28
2022-12-22T13:18:07.175Z,95777.31
2022-12-22T13:20:36.476Z,95781.72
2022-12-22T13:23:12.362Z,95784.56
2022-12-22T13:25:49.890Z,95785.53
2022-12-22T13:28:21.526Z,95789.13
2022-12-22T13:30:50.501Z,95783.97
2022-12-22T13:33:21.009Z,95780.59
2022-12-22T13:35:54.967Z,95782.31
2022-12-22T13:38:31.671Z,95783.97
2022-12-22T13:41:04.153Z,95772.31
2022-12-22T13:43:32.466Z,95769.50
2022-12-22T13:46:02.277Z,95780.75
2022-12-22T13:48:43.667Z,95772.50
2022-12-22T13:51:25.303Z,95750.88
2022-12-22T13:54:12.655Z,95746.00
2022-12-22T13:56:42.755Z,95738.25
2022-12-22T13:59:27.881Z,95723.28
2022-12-22T14:02:03.165Z,95719.53
2022-12-22T14:04:30.465Z,95713.00
2022-12-22T14:06:57.324Z,95703.50
2022-12-22T14:09:28.219Z,95706.53
2022-12-22T14:12:00.927Z,95703.13
2022-12-22T14:14:31.271Z,95695.75
2022-12-22T14:17:00.707Z,95700.94
2022-12-22T14:19:36.540Z,95699.38
2022-12-22T14:22:14.614Z,95704.97
2022-12-22T14:24:44.711Z,95697.19
2022-12-22T14:27:37.613Z,95701.22
2022-12-22T14:30:14.436Z,95693.16
2022-12-22T14:32:54.756Z,95701.34
2022-12-22T14:35:25.790Z,95704.56
2022-12-22T14:38:14.002Z,95705.31
2022-12-22T14:40:43.195Z,95713.88
2022-12-22T14:43:18.819Z,95713.78
2022-12-22T14:45:48.137Z,95715.69
2022-12-22T14:48:26.378Z,95719.06
2022-12-22T14:50:54.276Z,95724.19
2022-12-22T14:53:45.116Z,95733.69
2022-12-22T14:56:13.484Z,95741.84
2022-12-22T14:58:42.869Z,95746.34
2022-12-22T15:01:36.119Z,95742.59
2022-12-22T15:04:20.236Z,95750.28
2022-12-22T15:06:48.492Z,95753.06
2022-12-22T15:09:15.489Z,95751.66
2022-12-22T15:11:49.386Z,95746.09
2022-12-22T15:14:17.727Z,95752.69
2022-12-22T15:16:45.845Z,95751.22
2022-12-22T15:19:17.441Z,95751.44
2022-12-22T15:21:44.804Z,95752.63
2022-12-22T15:24:13.521Z,95749.13
2022-12-22T15:26:40.295Z,95750.22
2022-12-22T15:29:07.292Z,95754.53
2022-12-22T15:31:34.169Z,95757.03
2022-12-22T15:34:03.707Z,95764.84
2022-12-22T15:36:30.527Z,95770.38
2022-12-22T15:38:57.217Z,95771.72
2022-12-22T15:41:24.308Z,95764.59
2022-12-22T15:43:57.731Z,95777.38
2022-12-22T15:46:25.029Z,95770.41
2022-12-22T15:48:52.287Z,95777.66
2022-12-22T15:51:26.255Z,95786.19
2022-12-22T15:53:54.052Z,95780.56
2022-12-22T15:56:24.014Z,95777.97
2022-12-22T15:58:50.950Z,95782.16
2022-12-22T16:01:17.825Z,95775.56
2022-12-22T16:03:44.783Z,95774.16
2022-12-22T16:06:16.538Z,95772.22
2022-12-22T16:08:49.634Z,95763.88
2022-12-22T16:11:17.286Z,95752.59
2022-12-22T16:13:44.918Z,95735.47
2022-12-22T16:16:12.339Z,95738.44
2022-12-22T16:18:39.252Z,95732.47
2022-12-22T16:21:11.571Z,95726.44
2022-12-22T16:23:39.996Z,95716.06
2022-12-22T16:26:06.785Z,95701.09
2022-12-22T16:28:33.844Z,95698.09
2022-12-22T16:31:01.367Z,95694.09
2022-12-22T16:33:28.358Z,95685.03
2022-12-22T16:35:55.031Z,95677.25
2022-12-22T16:38:21.888Z,95676.84
2022-12-22T16:40:51.761Z,95676.13
2022-12-22T16:46:14.079Z,95672.25
2022-12-22T16:49:01.656Z,95678.22
2022-12-22T16:51:34.289Z,95673.78
2022-12-22T16:54:01.815Z,95684.91
2022-12-22T16:56:30.640Z,95678.50
2022-12-22T16:58:57.946Z,95681.75
2022-12-22T17:01:40.476Z,95674.22
2022-12-22T17:04:16.417Z,95668.28
2022-12-22T17:06:43.647Z,95669.03
2022-12-22T17:09:15.695Z,95660.09
2022-12-22T17:11:45.217Z,95656.00
2022-12-22T17:14:34.433Z,95651.81
2022-12-22T17:17:01.258Z,95649.66
2022-12-22T17:19:28.392Z,95637.44
2022-12-22T17:21:57.894Z,95643.72
2022-12-22T17:24:28.236Z,95641.13
2022-12-22T17:26:59.918Z,95643.28
2022-12-22T17:29:26.699Z,95634.34
2022-12-22T17:31:56.751Z,95624.41
2022-12-22T17:34:24.122Z,95615.06
2022-12-22T17:36:51.164Z,95608.84
2022-12-22T17:39:21.290Z,95598.81
2022-12-22T17:41:54.344Z,95602.16
2022-12-22T17:44:25.264Z,95591.03
2022-12-22T17:46:52.318Z,95576.59
2022-12-22T17:49:22.274Z,95579.19
2022-12-22T17:51:50.263Z,95575.88
2022-12-22T17:54:25.846Z,95575.91
2022-12-22T17:56:56.735Z,95568.81
2022-12-22T17:59:23.453Z,95574.06
2022-12-22T18:01:50.353Z,95572.66
2022-12-22T18:04:17.876Z,95578.59
2022-12-22T18:06:44.994Z,95577.19
2022-12-22T18:09:26.275Z,95573.47
2022-12-22T18:11:53.372Z,95575.72
2022-12-22T18:14:22.213Z,95569.88
2022-12-22T18:16:48.925Z,95565.78
2022-12-22T18:19:15.720Z,95565.69
2022-12-22T18:21:43.489Z,95561.34
2022-12-22T18:24:18.018Z,95557.66
2022-12-22T18:26:47.125Z,95555.41
2022-12-22T18:29:17.922Z,95552.47
2022-12-22T18:31:45.217Z,95549.88
2022-12-22T18:34:12.384Z,95547.72
2022-12-22T18:36:40.256Z,95533.66
2022-12-22T18:39:16.800Z,95537.41
2022-12-22T18:41:44.095Z,95536.25
2022-12-22T18:44:18.671Z,95522.22
2022-12-22T18:46:45.940Z,95515.88
2022-12-22T18:49:13.384Z,95516.94
2022-12-22T18:51:40.600Z,95512.19
2022-12-22T18:54:22.407Z,95508.50
2022-12-22T18:56:50.767Z,95510.34
2022-12-22T18:59:25.754Z,95511.75
2022-12-22T19:01:52.797Z,95499.56
2022-12-22T19:04:19.686Z,95490.22
2022-12-22T19:06:46.577Z,95482.84
2022-12-22T19:09:15.129Z,95487.94
2022-12-22T19:11:42.940Z,95479.09
2022-12-22T19:14:20.635Z,95470.97
2022-12-22T19:16:48.118Z,95468.72
2022-12-22T19:19:20.047Z,95457.97
2022-12-22T19:21:48.749Z,95457.97
2022-12-22T19:24:15.594Z,95443.84
2022-12-22T19:26:42.410Z,95436.50
2022-12-22T19:29:14.469Z,95435.75
2022-12-22T19:31:41.593Z,95427.25
2022-12-22T19:34:17.512Z,95415.13
2022-12-22T19:36:44.256Z,95404.75
2022-12-22T19:39:10.949Z,95400.00
2022-12-22T19:41:43.610Z,95390.03
2022-12-22T19:44:19.925Z,95390.72
2022-12-22T19:46:47.478Z,95388.19
2022-12-22T19:49:20.016Z,95378.22
2022-12-22T19:51:46.870Z,95374.84
2022-12-22T19:54:14.584Z,95379.78
2022-12-22T19:56:43.201Z,95370.09
2022-12-22T19:59:26.933Z,95363.47
2022-12-22T20:01:56.230Z,95360.59
2022-12-22T20:04:23.072Z,95358.72
2022-12-22T20:06:49.900Z,95355.41
2022-12-22T20:09:16.609Z,95355.13
2022-12-22T20:11:44.067Z,95350.03
2022-12-22T20:14:19.923Z,95345.19
2022-12-22T20:16:46.763Z,95344.44
2022-12-22T20:19:16.795Z,95328.22
2022-12-22T20:21:43.749Z,95331.13
2022-12-22T20:24:19.592Z,95331.50
2022-12-22T20:26:52.007Z,95347.47
2022-12-22T20:29:21.223Z,95328.56
2022-12-22T20:31:47.947Z,95327.88
2022-12-22T20:34:14.760Z,95332.72
2022-12-22T20:36:43.335Z,95319.81
2022-12-22T20:39:16.435Z,95317.59
2022-12-22T20:41:47.055Z,95320.28
2022-12-22T20:44:17.564Z,95318.69
2022-12-22T20:46:44.345Z,95319.03
2022-12-22T20:49:15.054Z,95314.97
2022-12-22T20:51:42.142Z,95320.88
2022-12-22T20:54:14.084Z,95324.59
2022-12-22T20:56:42.961Z,95327.19
2022-12-22T20:59:19.252Z,95320.16
2022-12-22T21:01:47.032Z,95317.56
2022-12-22T21:04:15.117Z,95324.19
2022-12-22T21:06:54.075Z,95321.94
2022-12-22T21:09:21.277Z,95307.56
2022-12-22T21:11:48.179Z,95300.44
2022-12-22T21:14:15.234Z,95290.88
2022-12-22T21:16:42.738Z,95297.50
2022-12-22T21:19:17.160Z,95297.50
2022-12-22T21:21:43.923Z,95293.75
2022-12-22T21:24:10.678Z,95290.47
2022-12-22T21:26:42.910Z,95290.84
2022-12-22T21:29:16.090Z,95287.13
2022-12-22T21:31:42.890Z,95295.66
2022-12-22T21:34:12.756Z,95298.63
2022-12-22T21:36:40.387Z,95307.47
2022-12-22T21:39:31.724Z,95307.13
2022-12-22T21:42:01.421Z,95303.09
2022-12-22T21:44:30.041Z,95298.19
2022-12-22T21:46:57.368Z,95299.31
2022-12-22T21:49:26.577Z,95296.72
2022-12-22T21:51:54.280Z,95289.00
2022-12-22T21:54:22.991Z,95292.31
2022-12-22T21:56:51.356Z,95290.75
2022-12-22T21:59:18.252Z,95291.16
2022-12-22T22:01:45.525Z,95283.75
2022-12-22T22:04:12.895Z,95286.41
2022-12-22T22:06:39.859Z,95281.16
2022-12-22T22:09:07.380Z,95282.63
2022-12-22T22:11:54.546Z,95278.91
2022-12-22T22:14:22.211Z,95268.94
2022-12-22T22:16:49.137Z,95283.38
2022-12-22T22:19:17.992Z,95289.31
2022-12-22T22:21:48.107Z,95287.84
2022-12-22T22:24:14.822Z,95289.25
2022-12-22T22:26:44.851Z,95289.69
2022-12-22T22:29:11.665Z,95281.53
2022-12-22T22:31:40.455Z,95285.56
2022-12-22T22:34:07.354Z,95287.09
2022-12-22T22:36:34.156Z,95285.56
2022-12-22T22:39:00.933Z,95281.88
2022-12-22T22:41:29.333Z,95287.09
2022-12-22T22:43:56.110Z,95295.94
2022-12-22T22:46:23.085Z,95285.56
2022-12-22T22:48:50.020Z,95292.59
2022-12-22T22:51:16.794Z,95302.59
2022-12-22T22:53:43.465Z,95297.00
2022-12-22T22:56:10.165Z,95295.56
2022-12-22T22:58:36.933Z,95302.59
2022-12-22T23:01:07.906Z,95300.34
2022-12-22T23:03:35.255Z,95292.25
2022-12-22T23:06:05.934Z,95289.97
2022-12-22T23:08:33.606Z,95288.50
2022-12-22T23:11:01.450Z,95286.97
2022-12-22T23:13:28.957Z,95283.31
2022-12-22T23:16:00.286Z,95298.75
2022-12-22T23:18:28.851Z,95293.94
2022-12-22T23:20:59.902Z,95279.56
2022-12-22T23:23:27.309Z,95281.72
2022-12-22T23:25:54.279Z,95288.75
2022-12-22T23:28:21.268Z,95291.09
2022-12-22T23:30:50.913Z,95285.47
2022-12-22T23:33:18.607Z,95296.59
2022-12-22T23:35:48.251Z,95292.47
2022-12-22T23:38:15.815Z,95281.78
2022-12-22T23:40:52.451Z,95287.28
2022-12-22T23:43:20.628Z,95287.28
2022-12-22T23:45:47.350Z,95276.53
2022-12-22T23:48:14.164Z,95278.00
2022-12-22T23:50:40.949Z,95276.91
2022-12-22T23:53:07.722Z,95279.09
2022-12-22T23:55:34.416Z,95274.94
2022-12-22T23:58:01.113Z,95270.50
